Time;durP1;ratioP1;P1;durP2;ratioP2;P2;SDS_P1;SDS_P2;PMS_P1;PMS_P2;Temp;Humidity;BMP_temperature;BMP_pressure;BME280_temperature;BME280_humidity;BME280_pressure;Samples;Min_cycle;Max_cycle;Signal;HPM_P1;HPM_P2
2021/10/09 00:00:42;;;;;;;37.33;25.25;;;;;;;10.02;75.15;99908.13;2617970;54;20030;-65
2021/10/09 00:03:12;;;;;;;36.53;25.92;;;;;;;9.99;75.04;99908.44;2618020;54;20113;-66
2021/10/09 00:05:42;;;;;;;37.65;26.92;;;;;;;9.96;74.71;99906.16;2617974;54;20039;-65
2021/10/09 00:08:14;;;;;;;37.13;26.55;;;;;;;9.89;75.00;99911.25;2618899;54;20042;-65
2021/10/09 00:10:48;;;;;;;39.13;26.35;;;;;;;9.84;74.88;99915.38;2618645;54;20030;-65
2021/10/09 00:13:17;;;;;;;35.35;24.00;;;;;;;9.84;75.12;99913.56;2618783;54;20030;-65
2021/10/09 00:15:47;;;;;;;38.47;26.58;;;;;;;9.89;74.82;99905.13;2618789;54;20896;-65
2021/10/09 00:18:17;;;;;;;35.92;26.23;;;;;;;9.80;74.72;99912.22;2619660;54;20031;-65
2021/10/09 00:20:47;;;;;;;36.97;25.55;;;;;;;9.68;75.26;99900.31;2618515;54;20023;-65
2021/10/09 00:23:16;;;;;;;35.65;25.98;;;;;;;9.67;75.60;99902.13;2619187;54;20022;-66
2021/10/09 00:25:48;;;;;;;38.67;25.55;;;;;;;9.65;75.64;99905.88;2618971;54;20078;-66
2021/10/09 00:28:18;;;;;;;35.22;25.33;;;;;;;9.70;75.63;99919.44;2618608;54;20030;-66
2021/10/09 00:30:47;;;;;;;36.50;26.27;;;;;;;9.65;75.00;99917.28;2618402;54;20117;-66
2021/10/09 00:33:17;;;;;;;38.38;27.20;;;;;;;9.58;75.15;99912.78;2618172;54;20079;-66
2021/10/09 00:35:46;;;;;;;38.63;26.27;;;;;;;9.53;75.97;99918.53;2618929;54;20026;-66
2021/10/09 00:38:16;;;;;;;42.55;30.70;;;;;;;9.53;75.69;99926.47;2618702;54;20038;-66
2021/10/09 00:40:49;;;;;;;40.97;28.85;;;;;;;9.47;75.79;99921.84;2618398;54;20040;-65
2021/10/09 00:43:19;;;;;;;46.45;29.92;;;;;;;9.36;75.85;99915.00;2617953;54;20018;-66
2021/10/09 00:45:52;;;;;;;46.25;29.38;;;;;;;9.34;76.45;99908.22;2618628;54;20057;-66
2021/10/09 00:48:22;;;;;;;46.67;30.42;;;;;;;9.29;76.11;99911.34;2618761;54;20160;-65
2021/10/09 00:50:52;;;;;;;50.15;33.85;;;;;;;9.25;76.29;99912.63;2618416;47;20058;-65
2021/10/09 00:53:24;;;;;;;45.30;31.08;;;;;;;9.26;76.46;99911.63;2619178;54;20026;-65
2021/10/09 00:55:58;;;;;;;43.42;29.40;;;;;;;9.26;76.71;99902.91;2618766;54;20055;-66
2021/10/09 00:58:30;;;;;;;47.58;30.05;;;;;;;9.28;76.71;99909.69;2618308;54;20057;-65
2021/10/09 01:01:00;;;;;;;46.20;29.95;;;;;;;9.31;76.69;99905.91;2618954;54;20621;-65
2021/10/09 01:03:32;;;;;;;52.08;32.95;;;;;;;9.35;76.00;99913.38;2618226;47;20070;-65
2021/10/09 01:06:02;;;;;;;53.63;34.05;;;;;;;9.29;76.28;99907.88;2618596;54;20037;-65
2021/10/09 01:08:32;;;;;;;49.08;32.10;;;;;;;9.18;76.07;99911.59;2618992;54;20026;-65
2021/10/09 01:11:04;;;;;;;50.95;32.22;;;;;;;9.09;76.44;99902.81;2618241;54;20118;-66
2021/10/09 01:13:34;;;;;;;49.70;32.90;;;;;;;9.07;76.84;99901.34;2618922;54;20038;-65
2021/10/09 01:16:04;;;;;;;51.08;33.70;;;;;;;9.09;76.72;99900.19;2618337;47;20019;-65
2021/10/09 01:18:35;;;;;;;49.25;31.55;;;;;;;9.07;76.40;99907.44;2618305;54;20027;-65
2021/10/09 01:21:08;;;;;;;47.08;30.00;;;;;;;9.07;76.98;99904.78;2618470;39;20462;-65
2021/10/09 01:23:45;;;;;;;47.28;31.70;;;;;;;9.13;76.90;99904.16;2618190;47;20026;-65
2021/10/09 01:26:14;;;;;;;49.50;31.40;;;;;;;9.11;76.83;99908.78;2618152;47;20062;-66
2021/10/09 01:28:47;;;;;;;51.08;32.35;;;;;;;9.07;76.37;99906.59;2618185;46;20031;-65
2021/10/09 01:31:18;;;;;;;49.97;31.58;;;;;;;9.02;76.62;99907.09;2618336;46;20038;-66
2021/10/09 01:33:49;;;;;;;48.05;30.83;;;;;;;9.00;76.33;99902.94;2618078;54;20579;-65
2021/10/09 01:36:31;;;;;;;46.08;31.30;;;;;;;8.89;76.95;99899.56;2619179;47;20102;-65
2021/10/09 01:39:02;;;;;;;46.22;31.42;;;;;;;8.90;76.56;99900.41;2620275;54;20066;-65
2021/10/09 01:41:44;;;;;;;41.42;28.27;;;;;;;8.92;77.03;99901.06;2619893;47;20034;-66
2021/10/09 01:44:14;;;;;;;50.80;31.20;;;;;;;8.95;76.57;99902.56;2619434;47;20582;-65
2021/10/09 01:46:45;;;;;;;44.70;28.98;;;;;;;8.97;76.65;99908.50;2619217;51;20033;-65
2021/10/09 01:49:15;;;;;;;40.85;26.02;;;;;;;8.96;76.47;99904.22;2618652;47;20530;-66
2021/10/09 01:51:49;;;;;;;39.00;26.27;;;;;;;8.98;76.44;99895.19;2617628;47;20023;-65
2021/10/09 01:54:19;;;;;;;39.80;28.13;;;;;;;9.00;76.19;99902.94;2618099;51;20026;-65
2021/10/09 01:56:49;;;;;;;40.00;27.88;;;;;;;9.02;76.36;99896.53;2617664;46;20558;-65
2021/10/09 01:59:19;;;;;;;41.28;28.63;;;;;;;9.00;75.72;99895.03;2617844;47;20031;-66
2021/10/09 02:01:55;;;;;;;48.30;30.05;;;;;;;8.86;75.83;99888.50;2617604;47;20041;-65
2021/10/09 02:04:26;;;;;;;46.05;29.35;;;;;;;8.76;76.45;99891.22;2618034;47;20034;-65
2021/10/09 02:06:59;;;;;;;42.67;29.45;;;;;;;8.74;76.61;99882.66;2618462;54;20597;-65
2021/10/09 02:09:28;;;;;;;46.47;30.40;;;;;;;8.60;76.43;99884.03;2618135;46;20031;-65
2021/10/09 02:12:01;;;;;;;47.47;31.48;;;;;;;8.61;76.90;99882.22;2619649;54;20027;-65
2021/10/09 02:14:37;;;;;;;44.10;29.23;;;;;;;8.56;77.10;99887.94;2620181;39;20453;-65
2021/10/09 02:17:34;;;;;;;45.33;30.52;;;;;;;8.56;76.73;99884.50;2618524;54;20035;-65
2021/10/09 02:25:44;;;;;;;48.40;30.63;;;;;;;8.39;76.84;99873.00;2618144;54;20042;-65
2021/10/09 02:28:16;;;;;;;45.88;29.52;;;;;;;8.33;76.75;99876.22;2618120;47;20027;-65
2021/10/09 02:30:46;;;;;;;45.83;29.92;;;;;;;8.30;77.16;99879.97;2618088;47;20039;-65
2021/10/09 02:33:18;;;;;;;48.90;30.95;;;;;;;8.29;77.14;99877.50;2618573;39;20436;-65
2021/10/09 02:35:49;;;;;;;47.83;31.20;;;;;;;8.27;76.85;99879.44;2619232;39;20430;-65
2021/10/09 02:38:22;;;;;;;45.95;29.88;;;;;;;8.23;76.98;99873.66;2618686;54;20038;-65
2021/10/09 02:40:54;;;;;;;49.13;31.30;;;;;;;8.29;77.38;99875.69;2617879;46;20589;-65
2021/10/09 02:43:25;;;;;;;44.20;29.95;;;;;;;8.27;76.84;99871.56;2618216;54;20031;-65
2021/10/09 02:45:57;;;;;;;44.33;28.42;;;;;;;8.22;76.91;99869.38;2618000;47;20022;-65
2021/10/09 02:48:37;;;;;;;48.25;30.40;;;;;;;8.14;76.87;99875.38;2618430;47;20034;-65
2021/10/09 02:51:06;;;;;;;48.45;31.08;;;;;;;8.09;76.98;99872.38;2618537;47;20026;-65
2021/10/09 02:53:39;;;;;;;44.60;28.95;;;;;;;7.96;76.73;99866.66;2622337;54;20125;-65
2021/10/09 02:56:08;;;;;;;41.65;26.10;;;;;;;8.00;77.04;99873.28;2621388;54;20037;-65
2021/10/09 02:58:39;;;;;;;40.40;25.90;;;;;;;8.06;77.04;99870.03;2619569;47;20163;-65
2021/10/09 03:01:09;;;;;;;41.20;27.42;;;;;;;8.07;76.86;99873.50;2618101;47;20030;-65
2021/10/09 03:03:39;;;;;;;42.92;26.95;;;;;;;8.08;76.86;99876.00;2618982;39;20439;-65
2021/10/09 03:06:08;;;;;;;43.58;27.73;;;;;;;8.07;76.76;99868.22;2618124;47;20159;-65
2021/10/09 03:08:42;;;;;;;40.65;26.55;;;;;;;8.09;76.54;99871.56;2618043;47;20065;-65
2021/10/09 03:11:11;;;;;;;40.40;26.02;;;;;;;8.00;76.26;99870.66;2618506;39;20446;-65
2021/10/09 03:13:45;;;;;;;;;;;;;;;7.97;76.41;99875.41;2618249;47;20138;-65
2021/10/09 03:16:16;;;;;;;38.53;25.98;;;;;;;7.94;76.48;99874.69;2618133;46;19964;-65
2021/10/09 03:18:47;;;;;;;39.30;25.00;;;;;;;7.91;76.37;99874.16;2617892;47;20042;-64
2021/10/09 03:21:17;;;;;;;36.90;25.42;;;;;;;7.87;76.43;99873.63;2617901;47;20061;-65
2021/10/09 03:23:50;;;;;;;42.10;27.40;;;;;;;7.86;76.34;99877.25;2618506;51;20034;-65
2021/10/09 03:26:20;;;;;;;39.13;24.85;;;;;;;7.83;76.26;99874.09;2618772;54;20037;-65
2021/10/09 03:28:50;;;;;;;39.95;25.52;;;;;;;7.82;76.15;99877.69;2618072;54;20023;-65
2021/10/09 03:31:20;;;;;;;40.55;27.20;;;;;;;7.75;76.06;99874.00;2618455;39;20434;-65
2021/10/09 03:33:49;;;;;;;41.47;27.38;;;;;;;7.69;76.50;99880.69;2618506;54;20081;-65
2021/10/09 03:36:20;;;;;;;42.13;27.05;;;;;;;7.65;76.49;99884.59;2617861;47;20041;-65
2021/10/09 03:38:55;;;;;;;44.17;28.25;;;;;;;7.62;76.51;99877.00;2618027;51;20027;-65
2021/10/09 03:41:26;;;;;;;39.88;26.45;;;;;;;7.51;76.58;99887.69;2617917;47;20117;-65
2021/10/09 03:43:56;;;;;;;39.58;26.02;;;;;;;7.40;76.54;99886.13;2617989;47;20042;-65
2021/10/09 03:46:27;;;;;;;35.08;23.98;;;;;;;7.34;76.25;99889.31;2618357;54;20065;-66
2021/10/09 03:49:04;;;;;;;39.22;25.63;;;;;;;7.27;76.97;99880.38;2623743;47;20139;-66
2021/10/09 03:54:19;;;;;;;38.33;26.42;;;;;;;7.37;76.47;99889.03;2624800;54;20022;-65
2021/10/09 03:56:49;;;;;;;37.80;25.92;;;;;;;7.35;76.58;99889.19;2624264;47;20030;-64
2021/10/09 03:59:19;;;;;;;40.30;26.33;;;;;;;7.35;76.00;99894.44;2624543;54;20042;-64
2021/10/09 04:01:49;;;;;;;45.88;26.90;;;;;;;7.26;76.39;99894.47;2624114;54;20029;-64
2021/10/09 04:04:19;;;;;;;41.15;26.92;;;;;;;7.22;76.37;99879.94;2623140;47;20078;-65
2021/10/09 04:06:49;;;;;;;36.70;24.50;;;;;;;7.24;76.69;99885.91;2623290;54;20134;-65
2021/10/09 04:09:21;;;;;;;44.85;27.13;;;;;;;7.23;76.44;99890.34;2623147;47;20030;-65
2021/10/09 04:11:52;;;;;;;43.47;26.38;;;;;;;7.20;76.88;99886.19;2623774;54;20107;-66
2021/10/09 04:14:22;;;;;;;39.97;27.38;;;;;;;7.27;76.48;99886.44;2623402;51;20127;-64
2021/10/09 04:16:51;;;;;;;38.83;26.33;;;;;;;7.27;76.47;99881.19;2623589;39;20472;-64
2021/10/09 04:19:22;;;;;;;41.65;27.25;;;;;;;7.28;76.02;99887.28;2622533;47;20044;-64
2021/10/09 04:21:52;;;;;;;40.35;25.38;;;;;;;7.21;76.29;99894.91;2622001;54;20039;-64
2021/10/09 04:24:27;;;;;;;37.97;25.48;;;;;;;7.18;75.88;99897.81;2618910;54;20027;-64
2021/10/09 04:26:59;;;;;;;39.35;24.63;;;;;;;7.11;76.23;99900.22;2618074;54;20039;-64
2021/10/09 04:29:29;;;;;;;40.30;25.17;;;;;;;7.14;76.38;99904.34;2618039;47;20023;-64
2021/10/09 04:32:00;;;;;;;36.17;24.67;;;;;;;7.12;76.06;99898.41;2618169;47;20034;-64
2021/10/09 04:34:31;;;;;;;36.67;26.38;;;;;;;7.08;75.96;99891.78;2619772;47;20726;-64
2021/10/09 04:37:01;;;;;;;37.92;25.13;;;;;;;6.99;76.47;99901.34;2620389;47;20031;-65
2021/10/09 04:39:37;;;;;;;41.20;26.08;;;;;;;7.04;76.49;99906.19;2619295;47;20023;-64
2021/10/09 04:42:07;;;;;;;39.60;24.27;;;;;;;7.05;76.20;99898.13;2619288;47;20026;-64
2021/10/09 04:44:38;;;;;;;39.22;25.60;;;;;;;7.02;76.15;99903.69;2619436;47;20026;-64
2021/10/09 04:47:08;;;;;;;44.50;26.50;;;;;;;7.00;75.77;99902.19;2618961;47;20027;-65
2021/10/09 04:49:39;;;;;;;44.33;27.02;;;;;;;6.92;75.83;99900.25;2619080;54;20030;-64
2021/10/09 04:52:08;;;;;;;34.95;24.52;;;;;;;6.87;76.14;99903.31;2618360;47;20038;-64
2021/10/09 04:54:42;;;;;;;37.17;25.58;;;;;;;6.88;76.00;99909.41;2617633;47;20023;-64
2021/10/09 04:57:15;;;;;;;43.78;26.33;;;;;;;6.82;76.26;99899.47;2617849;54;20034;-64
2021/10/09 04:59:45;;;;;;;40.72;26.88;;;;;;;6.79;76.41;99897.94;2617971;54;20034;-64
2021/10/09 05:02:16;;;;;;;39.30;25.42;;;;;;;6.79;76.31;99895.31;2618710;54;20548;-64
2021/10/09 05:04:46;;;;;;;40.50;25.52;;;;;;;6.75;76.32;99890.47;2618614;47;20019;-65
2021/10/09 05:07:17;;;;;;;43.60;25.85;;;;;;;6.80;76.76;99891.69;2618429;47;20023;-65
2021/10/09 05:09:50;;;;;;;41.33;25.17;;;;;;;6.77;76.27;99894.59;2618868;39;20407;-64
2021/10/09 05:12:20;;;;;;;43.45;25.38;;;;;;;6.77;76.34;99902.50;2618307;47;20023;-64
2021/10/09 05:14:52;;;;;;;44.03;25.77;;;;;;;6.79;76.60;99900.56;2618333;47;20658;-64
2021/10/09 05:17:22;;;;;;;46.50;26.30;;;;;;;6.84;76.08;99902.75;2618580;47;20546;-64
2021/10/09 05:19:52;;;;;;;42.00;24.52;;;;;;;6.83;76.19;99899.31;2618338;47;20530;-64
2021/10/09 05:22:22;;;;;;;38.30;24.45;;;;;;;6.83;75.81;99906.38;2618854;39;20470;-64
2021/10/09 05:24:57;;;;;;;41.00;23.98;;;;;;;6.84;75.52;99906.22;2618568;47;20031;-65
2021/10/09 05:27:28;;;;;;;37.03;25.10;;;;;;;6.85;75.79;99902.59;2618680;47;20050;-64
2021/10/09 05:30:05;;;;;;;38.70;24.55;;;;;;;6.87;75.36;99907.75;2618695;47;20029;-65
2021/10/09 05:32:47;;;;;;;40.45;24.65;;;;;;;6.85;75.96;99907.88;2618727;54;20558;-65
2021/10/09 05:35:17;;;;;;;38.13;24.45;;;;;;;6.88;75.87;99912.84;2618585;46;20034;-64
2021/10/09 05:37:48;;;;;;;43.55;25.95;;;;;;;6.91;75.79;99909.13;2618770;54;20042;-64
2021/10/09 05:40:21;;;;;;;38.92;25.35;;;;;;;6.92;75.16;99913.41;2618453;47;20043;-64
2021/10/09 05:42:50;;;;;;;39.17;24.30;;;;;;;6.85;75.37;99915.75;2618521;47;20034;-64
2021/10/09 05:45:21;;;;;;;37.90;25.38;;;;;;;6.89;75.49;99911.88;2618821;47;20041;-65
2021/10/09 05:47:52;;;;;;;46.05;28.27;;;;;;;6.90;75.64;99920.63;2618539;46;20026;-64
2021/10/09 05:50:26;;;;;;;38.80;24.55;;;;;;;6.84;74.99;99924.63;2618306;47;20026;-65
2021/10/09 05:53:06;;;;;;;37.70;26.45;;;;;;;6.70;75.65;99925.06;2618028;47;20022;-64
2021/10/09 05:55:46;;;;;;;39.67;24.52;;;;;;;6.78;75.61;99929.63;2619061;54;20038;-65
2021/10/09 05:58:22;;;;;;;40.58;24.92;;;;;;;6.79;75.56;99926.03;2618205;54;20031;-65
2021/10/09 06:44:55;;;;;;;50.85;28.48;;;;;;;6.96;76.01;99962.09;2618402;54;19962;-65
2021/10/09 06:47:27;;;;;;;55.30;31.52;;;;;;;7.05;76.69;99961.25;2623214;47;20562;-65
2021/10/09 06:50:29;;;;;;;58.05;32.80;;;;;;;7.15;76.31;99963.88;2620874;47;20035;-69
2021/10/09 07:01:17;;;;;;;52.38;32.33;;;;;;;7.60;76.64;99968.44;2618251;39;20433;-68
2021/10/09 07:03:47;;;;;;;48.28;31.40;;;;;;;7.66;76.82;99973.09;2620032;39;20524;-69
2021/10/09 07:06:18;;;;;;;48.95;31.38;;;;;;;7.77;76.62;99975.53;2618368;47;20041;-67
2021/10/09 07:08:58;;;;;;;47.20;32.92;;;;;;;7.87;76.63;99973.69;2618923;39;20421;-69
2021/10/09 07:11:40;;;;;;;54.28;35.10;;;;;;;7.96;76.83;99974.63;2622383;54;20107;-68
2021/10/09 07:14:10;;;;;;;48.30;33.05;;;;;;;8.03;76.50;99975.69;2622635;54;20029;-71
2021/10/09 07:16:44;;;;;;;50.50;30.13;;;;;;;8.09;76.94;99982.19;2622643;54;20030;-71
2021/10/09 07:19:14;;;;;;;52.15;32.42;;;;;;;8.21;77.27;99982.81;2622656;54;20030;-70
2021/10/09 07:21:46;;;;;;;50.85;32.58;;;;;;;8.30;76.90;99979.28;2622505;54;20629;-70
2021/10/09 07:24:37;;;;;;;70.72;45.08;;;;;;;8.41;77.27;99981.72;2623138;47;20158;-71
2021/10/09 07:27:08;;;;;;;57.03;36.17;;;;;;;8.51;76.96;99982.47;2623549;54;20061;-71
2021/10/09 07:29:37;;;;;;;49.08;31.90;;;;;;;8.60;76.34;99978.91;2623167;54;20062;-71
2021/10/09 07:32:10;;;;;;;48.83;31.90;;;;;;;8.69;76.30;99990.34;2624062;39;20501;-71
2021/10/09 07:34:41;;;;;;;48.67;32.65;;;;;;;8.77;76.02;99984.34;2623476;54;20038;-71
2021/10/09 07:37:10;;;;;;;51.40;30.40;;;;;;;8.81;75.86;99989.16;2623249;54;20042;-70
2021/10/09 07:39:40;;;;;;;45.70;31.30;;;;;;;8.85;75.91;99987.03;2623489;54;20042;-71
2021/10/09 07:42:10;;;;;;;45.90;30.80;;;;;;;8.95;75.59;99979.88;2622883;54;20035;-70
2021/10/09 07:44:39;;;;;;;43.83;29.50;;;;;;;9.04;75.22;99980.75;2624426;39;20454;-70
2021/10/09 07:47:13;;;;;;;41.30;27.80;;;;;;;9.10;75.16;99978.34;2623526;54;20078;-71
2021/10/09 07:49:43;;;;;;;41.15;27.67;;;;;;;9.20;75.26;99983.53;2623636;54;20097;-72
2021/10/09 07:52:13;;;;;;;41.15;28.45;;;;;;;9.32;75.06;99979.63;2623920;54;20544;-71
2021/10/09 07:54:43;;;;;;;41.08;28.20;;;;;;;9.39;74.22;99979.84;2623403;47;20041;-72
2021/10/09 07:57:12;;;;;;;36.45;26.13;;;;;;;9.47;74.45;99976.41;2628908;39;20426;-72
2021/10/09 07:59:42;;;;;;;43.05;28.85;;;;;;;9.60;74.17;99971.53;2624921;54;20042;-71
2021/10/09 08:02:14;;;;;;;37.47;26.73;;;;;;;9.67;73.78;99970.75;2622763;54;20110;-71
2021/10/09 08:04:44;;;;;;;36.03;24.42;;;;;;;9.74;73.90;99973.56;2625773;39;20466;-71
2021/10/09 08:07:14;;;;;;;37.17;26.10;;;;;;;9.83;73.78;99977.06;2623166;47;20077;-71
2021/10/09 08:09:43;;;;;;;34.33;24.05;;;;;;;9.94;72.85;99976.78;2622987;54;20038;-71
2021/10/09 08:12:13;;;;;;;33.03;22.88;;;;;;;10.05;72.33;99988.91;2618821;54;20146;-71
2021/10/09 08:14:42;;;;;;;33.85;23.55;;;;;;;10.16;72.23;99985.94;2618209;54;20055;-71
2021/10/09 08:17:15;;;;;;;32.42;22.67;;;;;;;10.23;72.00;99980.84;2617519;54;20131;-71
2021/10/09 08:19:44;;;;;;;30.90;21.83;;;;;;;10.29;71.34;99975.78;2617372;54;20158;-70
2021/10/09 08:22:14;;;;;;;38.53;24.10;;;;;;;10.35;70.84;99977.75;2617938;39;20085;-71
2021/10/09 08:24:48;;;;;;;31.05;22.30;;;;;;;10.41;70.70;99974.47;2617926;47;20534;-70
2021/10/09 08:27:39;;;;;;;;;;;;;;;10.51;71.03;99973.50;2618729;47;20110;-70
2021/10/09 08:35:48;;;;;;;31.85;22.85;;;;;;;10.78;70.26;99978.47;2619579;54;20027;-70
2021/10/09 08:41:01;;;;;;;30.63;21.92;;;;;;;10.95;69.36;99981.13;2618803;54;20045;-70
2021/10/09 08:43:30;;;;;;;29.88;22.05;;;;;;;11.01;69.76;99977.81;2619906;54;20030;-68
2021/10/09 08:46:00;;;;;;;28.77;21.20;;;;;;;11.09;69.96;99978.63;2623999;54;20035;-70
2021/10/09 08:48:40;;;;;;;31.73;21.70;;;;;;;11.22;69.46;99983.41;2623170;54;20044;-71
2021/10/09 08:51:10;;;;;;;31.67;22.55;;;;;;;11.32;69.54;99980.59;2619607;54;20568;-71
2021/10/09 08:53:42;;;;;;;35.05;20.70;;;;;;;11.45;68.87;99980.06;2618377;51;20042;-71
2021/10/09 08:56:13;;;;;;;27.98;19.92;;;;;;;11.54;68.32;99981.69;2619148;54;20034;-71
2021/10/09 08:58:44;;;;;;;29.00;19.75;;;;;;;11.60;68.08;99983.66;2619635;54;20050;-72
2021/10/09 09:01:24;;;;;;;27.70;19.83;;;;;;;11.67;67.98;99976.66;2619973;54;20038;-69
2021/10/09 09:07:13;;;;;;;24.17;17.80;;;;;;;11.81;66.97;99972.50;2619007;54;20034;-71
2021/10/09 09:26:18;;;;;;;24.95;17.45;;;;;;;12.45;65.35;99956.41;2618316;54;20038;-70
2021/10/09 09:31:52;;;;;;;22.63;16.85;;;;;;;12.58;65.30;99959.31;2617879;47;20553;-67
2021/10/09 09:37:16;;;;;;;22.98;17.52;;;;;;;12.79;64.24;99959.47;2618430;54;20043;-68
2021/10/09 09:39:50;;;;;;;28.13;17.42;;;;;;;12.91;63.74;99951.09;2617740;47;20041;-68
2021/10/09 09:42:26;;;;;;;24.05;16.70;;;;;;;12.96;64.02;99954.03;2618226;54;20126;-70
2021/10/09 09:44:58;;;;;;;25.17;16.63;;;;;;;13.06;63.96;99954.59;2617596;54;20025;-69
2021/10/09 09:47:36;;;;;;;26.10;17.85;;;;;;;13.20;62.95;99953.78;2618247;39;20438;-70
2021/10/09 09:50:09;;;;;;;22.73;16.77;;;;;;;13.22;62.82;99957.09;2618451;54;20518;-69
2021/10/09 09:52:43;;;;;;;25.52;17.00;;;;;;;13.23;62.67;99958.78;2618562;54;20023;-69
2021/10/09 09:55:14;;;;;;;28.75;17.67;;;;;;;13.28;63.23;99956.41;2618953;54;20542;-69
2021/10/09 09:58:03;;;;;;;29.92;17.60;;;;;;;13.35;63.11;99949.38;2626119;54;20577;-70
2021/10/09 10:00:36;;;;;;;26.10;16.80;;;;;;;13.48;62.81;99950.56;2628074;54;20030;-70
2021/10/09 10:03:07;;;;;;;22.73;15.20;;;;;;;13.60;61.98;99938.47;2628550;54;20138;-70
2021/10/09 10:05:37;;;;;;;22.20;14.55;;;;;;;13.71;61.15;99942.47;2628957;54;20027;-70
2021/10/09 10:08:13;;;;;;;22.80;15.50;;;;;;;13.77;60.69;99955.84;2626609;54;20026;-69
2021/10/09 10:10:42;;;;;;;23.58;14.40;;;;;;;13.84;60.36;99948.78;2628010;47;20038;-70
2021/10/09 10:13:12;;;;;;;22.95;15.35;;;;;;;13.91;60.77;99940.06;2628819;46;20038;-70
2021/10/09 10:15:41;;;;;;;19.92;14.15;;;;;;;14.01;59.86;99940.59;2627844;54;20022;-72
2021/10/09 10:18:12;;;;;;;18.10;12.73;;;;;;;13.98;59.44;99951.59;2626318;39;20422;-72
2021/10/09 10:20:50;;;;;;;22.27;14.75;;;;;;;14.03;58.94;99941.22;2623460;47;20043;-71
2021/10/09 10:23:41;;;;;;;20.70;13.57;;;;;;;14.13;58.62;99939.91;2623207;46;20060;-75
2021/10/09 10:26:27;;;;;;;17.50;13.57;;;;;;;14.16;58.37;99930.72;2623590;54;20116;-74
2021/10/09 10:29:25;;;;;;;20.98;12.90;;;;;;;14.26;58.22;99933.91;2623450;54;20057;-70
2021/10/09 10:32:13;;;;;;;19.67;12.60;;;;;;;14.33;57.31;99934.00;2623226;54;20046;-71
2021/10/09 10:34:46;;;;;;;18.45;11.40;;;;;;;14.38;56.88;99939.56;2623037;54;20034;-71
2021/10/09 10:37:35;;;;;;;18.05;11.88;;;;;;;14.45;56.74;99935.13;2623093;39;20446;-71
2021/10/09 10:40:08;;;;;;;19.67;11.63;;;;;;;14.47;56.92;99932.28;2621722;54;20126;-71
2021/10/09 10:42:38;;;;;;;20.45;12.48;;;;;;;14.58;56.82;99934.47;2621360;54;20034;-71
2021/10/09 10:45:15;;;;;;;14.90;11.38;;;;;;;14.64;55.40;99939.00;2621778;54;20082;-72
2021/10/09 10:48:01;;;;;;;16.48;12.25;;;;;;;14.71;55.78;99929.25;2619786;54;20119;-71
2021/10/09 10:50:57;;;;;;;17.88;12.88;;;;;;;14.77;56.22;99928.47;2621299;54;20095;-70
2021/10/09 10:54:20;;;;;;;16.55;11.23;;;;;;;14.93;55.43;99929.22;2618964;54;20054;-71
2021/10/09 10:57:25;;;;;;;13.93;10.55;;;;;;;15.01;54.60;99926.41;2620002;54;20037;-71
2021/10/09 11:00:15;;;;;;;13.48;10.30;;;;;;;15.01;54.96;99924.56;2619907;54;20026;-71
2021/10/09 11:02:49;;;;;;;15.52;10.45;;;;;;;15.18;54.63;99918.94;2618865;39;20383;-71
2021/10/09 11:05:20;;;;;;;19.60;10.23;;;;;;;15.29;53.01;99923.72;2618599;54;20038;-71
2021/10/09 11:08:10;;;;;;;17.35;10.82;;;;;;;15.33;53.38;99922.31;2618470;54;20038;-71
2021/10/09 11:10:48;;;;;;;14.82;10.05;;;;;;;15.39;52.91;99924.22;2617778;47;20034;-71
2021/10/09 11:13:21;;;;;;;15.55;10.48;;;;;;;15.37;52.76;99928.91;2618527;54;20037;-71
2021/10/09 11:15:50;;;;;;;15.93;9.95;;;;;;;15.38;52.15;99911.88;2618317;54;20039;-70
2021/10/09 11:18:20;;;;;;;11.88;9.23;;;;;;;15.43;51.47;99928.13;2618386;54;20042;-71
2021/10/09 11:20:51;;;;;;;14.30;8.88;;;;;;;15.44;50.47;99921.78;2617967;54;20106;-71
2021/10/09 11:23:21;;;;;;;15.65;9.23;;;;;;;15.45;51.28;99918.09;2617561;47;20121;-71
2021/10/09 11:25:52;;;;;;;17.42;9.75;;;;;;;15.51;50.98;99919.13;2617702;47;20038;-70
2021/10/09 11:28:29;;;;;;;19.02;9.82;;;;;;;15.49;51.17;99913.19;2618232;54;20034;-71
2021/10/09 11:30:59;;;;;;;13.35;9.40;;;;;;;15.54;50.66;99924.88;2617937;54;20039;-71
2021/10/09 11:33:30;;;;;;;14.68;9.55;;;;;;;15.53;50.71;99917.91;2618500;39;20449;-71
2021/10/09 11:36:06;;;;;;;16.52;11.10;;;;;;;15.48;51.66;99914.22;2618612;54;20033;-71
2021/10/09 11:38:35;;;;;;;14.57;9.77;;;;;;;15.52;51.68;99918.94;2617949;54;20128;-70
2021/10/09 11:41:15;;;;;;;16.13;10.60;;;;;;;15.66;50.81;99922.53;2617935;54;20588;-70
2021/10/09 11:43:50;;;;;;;16.08;10.05;;;;;;;15.61;50.04;99919.59;2618063;54;20038;-71
2021/10/09 11:46:42;;;;;;;12.63;9.75;;;;;;;15.69;49.79;99918.66;2618043;54;20034;-70
2021/10/09 11:55:16;;;;;;;16.13;10.20;;;;;;;15.72;49.26;99918.25;2617597;54;20038;-69
2021/10/09 11:57:46;;;;;;;14.15;9.50;;;;;;;15.80;47.73;99923.41;2617579;54;20026;-70
2021/10/09 12:00:43;;;;;;;14.60;9.23;;;;;;;15.78;47.63;99914.78;2616983;47;20126;-69
2021/10/09 12:03:33;;;;;;;16.52;9.95;;;;;;;15.79;48.87;99908.41;2617678;54;20039;-68
2021/10/09 12:06:07;;;;;;;14.23;8.25;;;;;;;15.79;48.51;99913.75;2617480;54;20030;-70
2021/10/09 12:08:42;;;;;;;15.85;9.20;;;;;;;15.88;47.87;99907.25;2617758;54;20057;-69
2021/10/09 12:11:17;;;;;;;15.10;10.45;;;;;;;16.01;48.62;99912.63;2618331;54;20042;-70
2021/10/09 12:13:51;;;;;;;16.27;10.27;;;;;;;15.97;48.50;99907.88;2617989;54;20039;-68
2021/10/09 12:16:27;;;;;;;15.13;10.25;;;;;;;15.89;49.13;99902.72;2618307;54;20034;-68
2021/10/09 12:18:59;;;;;;;15.93;10.25;;;;;;;15.84;49.10;99919.34;2618401;54;20030;-72
2021/10/09 12:21:31;;;;;;;16.58;9.70;;;;;;;15.84;49.08;99906.00;2618259;54;20550;-71
2021/10/09 12:24:01;;;;;;;15.73;10.52;;;;;;;15.87;48.91;99912.75;2618692;54;20057;-70
2021/10/09 12:26:30;;;;;;;17.15;10.05;;;;;;;15.95;48.27;99910.72;2618657;54;20034;-70
2021/10/09 12:29:12;;;;;;;17.02;9.90;;;;;;;15.91;48.83;99906.00;2619600;39;20465;-71
2021/10/09 12:31:46;;;;;;;11.27;9.10;;;;;;;15.89;48.64;99903.56;2617779;47;20053;-72
2021/10/09 12:34:29;;;;;;;17.40;10.50;;;;;;;16.04;48.96;99903.38;2618747;54;20527;-71
2021/10/09 12:37:20;;;;;;;19.08;13.90;;;;;;;16.06;48.59;99896.00;2618065;47;20061;-70
2021/10/09 12:40:08;;;;;;;16.33;10.48;;;;;;;16.10;48.09;99906.06;2618649;54;20038;-68
2021/10/09 12:52:29;;;;;;;14.35;10.23;;;;;;;16.02;47.75;99898.25;2620172;46;20042;-63
2021/10/09 12:54:59;;;;;;;15.45;10.70;;;;;;;16.07;46.98;99905.63;2620074;39;20394;-63
2021/10/09 12:57:29;;;;;;;21.45;11.90;;;;;;;15.98;47.52;99901.53;2620053;54;20042;-63
2021/10/09 13:00:00;;;;;;;17.92;10.30;;;;;;;16.02;47.31;99902.75;2621529;39;20493;-64
2021/10/09 13:02:29;;;;;;;16.52;9.80;;;;;;;15.93;47.59;99902.13;2619911;54;20039;-64
2021/10/09 13:04:59;;;;;;;14.02;10.27;;;;;;;15.98;47.71;99905.00;2619832;39;20437;-64
2021/10/09 13:07:31;;;;;;;17.80;11.23;;;;;;;16.02;47.89;99900.91;2620840;39;20147;-65
2021/10/09 13:10:01;;;;;;;12.45;10.10;;;;;;;16.13;46.82;99891.50;2620077;47;20575;-64
2021/10/09 13:12:31;;;;;;;16.80;9.63;;;;;;;16.20;46.62;99894.19;2620079;54;20030;-64
2021/10/09 13:15:00;;;;;;;14.35;10.05;;;;;;;16.22;46.58;99897.47;2619916;54;20030;-63
2021/10/09 13:17:30;;;;;;;13.90;9.07;;;;;;;16.23;45.71;99891.94;2621010;39;20483;-63
2021/10/09 13:20:00;;;;;;;12.77;9.05;;;;;;;16.16;46.06;99891.09;2620463;54;20138;-64
2021/10/09 13:22:32;;;;;;;17.17;9.77;;;;;;;16.20;46.21;99889.66;2620226;54;20030;-63
2021/10/09 13:25:18;;;;;;;14.40;9.38;;;;;;;16.19;45.59;99890.69;2620040;54;20034;-65
2021/10/09 13:27:47;;;;;;;13.70;9.30;;;;;;;16.16;45.58;99887.59;2620613;54;20046;-65
2021/10/09 13:30:17;;;;;;;10.63;8.93;;;;;;;16.07;45.04;99882.47;2620304;54;20050;-64
2021/10/09 13:32:47;;;;;;;12.57;9.32;;;;;;;16.07;45.76;99874.44;2620040;47;20027;-64
2021/10/09 13:35:17;;;;;;;14.18;9.95;;;;;;;16.15;46.16;99881.44;2621340;54;20026;-64
2021/10/09 13:37:56;;;;;;;15.05;9.75;;;;;;;16.19;45.73;99882.69;2620640;54;20045;-64
2021/10/09 13:40:30;;;;;;;12.50;8.98;;;;;;;16.19;45.18;99881.88;2620931;54;20041;-64
2021/10/09 13:43:00;;;;;;;13.70;8.73;;;;;;;16.13;45.44;99867.50;2621575;54;20042;-64